Time;durP1;ratioP1;P1;durP2;ratioP2;P2;SDS_P1;SDS_P2;PMS_P1;PMS_P2;Temp;Humidity;BMP_temperature;BMP_pressure;BME280_temperature;BME280_humidity;BME280_pressure;Samples;Min_cycle;Max_cycle;Signal;HPM_P1;HPM_P2
2022/01/20 00:03:54;;;;;;;13.83;10.63;;;3.30;99.90;;;;;;5015101;28;20673;-55
2022/01/20 00:07:03;;;;;;;14.10;11.10;;;3.20;99.90;;;;;;5015033;28;20173;-59
2022/01/20 00:25:56;;;;;;;11.70;9.20;;;3.40;99.90;;;;;;5014377;28;20605;-58
2022/01/20 00:28:37;;;;;;;12.80;9.43;;;3.40;99.90;;;;;;5014855;28;20675;-57
2022/01/20 00:31:12;;;;;;;11.30;9.47;;;3.40;99.90;;;;;;5014513;28;20204;-55
2022/01/20 00:33:44;;;;;;;11.83;8.70;;;3.30;99.90;;;;;;5014740;28;20164;-54
2022/01/20 00:38:38;;;;;;;10.50;8.50;;;3.30;99.90;;;;;;5014277;28;20188;-59
2022/01/20 00:41:04;;;;;;;10.20;8.27;;;3.20;99.90;;;;;;5014545;28;20625;-58
2022/01/20 00:43:30;;;;;;;10.93;8.83;;;3.30;99.90;;;;;;5014231;28;20171;-57
2022/01/20 00:45:56;;;;;;;10.93;8.93;;;3.40;99.90;;;;;;5014222;28;20661;-57
2022/01/20 00:48:22;;;;;;;10.27;8.33;;;3.50;99.90;;;;;;5013856;28;20177;-54
2022/01/20 00:50:48;;;;;;;10.77;7.90;;;3.60;99.90;;;;;;5014290;28;20266;-56
2022/01/20 00:53:15;;;;;;;9.93;7.80;;;3.70;99.90;;;;;;5014154;28;20653;-56
2022/01/20 00:55:41;;;;;;;8.60;6.93;;;3.70;99.90;;;;;;5014085;28;20172;-56
2022/01/20 00:58:07;;;;;;;8.70;7.13;;;3.60;99.90;;;;;;5014209;28;20245;-56
2022/01/20 01:00:33;;;;;;;9.53;7.67;;;3.50;99.90;;;;;;5013725;28;20172;-55
2022/01/20 01:02:59;;;;;;;8.77;7.60;;;3.50;99.90;;;;;;4996661;28;20176;-57
2022/01/20 01:05:26;;;;;;;9.40;7.23;;;3.50;99.90;;;;;;5013711;28;20233;-51
2022/01/20 01:07:54;;;;;;;9.17;7.27;;;3.50;99.90;;;;;;5014140;28;20251;-56
2022/01/20 01:10:22;;;;;;;10.80;7.50;;;3.40;99.90;;;;;;5013541;28;20218;-58
2022/01/20 01:15:20;;;;;;;8.40;6.83;;;3.40;99.90;;;;;;5013686;28;20171;-56
2022/01/20 01:20:34;;;;;;;9.03;7.50;;;3.40;99.90;;;;;;5014056;28;20184;-54
2022/01/20 01:23:00;;;;;;;9.87;7.90;;;3.40;99.90;;;;;;5013549;28;20169;-55
2022/01/20 01:25:26;;;;;;;9.67;7.13;;;3.40;99.90;;;;;;5013293;28;20255;-55
2022/01/20 01:27:51;;;;;;;10.67;7.80;;;3.40;99.90;;;;;;5013364;28;20638;-55
2022/01/20 01:32:48;;;;;;;9.47;7.83;;;3.20;99.90;;;;;;5013335;28;20204;-52
2022/01/20 01:35:16;;;;;;;8.83;7.33;;;3.20;99.90;;;;;;5013409;28;20187;-57
2022/01/20 01:40:11;;;;;;;9.43;7.33;;;3.20;99.90;;;;;;5013646;28;20172;-54
2022/01/20 01:42:44;;;;;;;9.60;7.60;;;3.10;99.90;;;;;;5013348;28;20287;-51
2022/01/20 01:45:17;;;;;;;9.80;7.83;;;3.10;99.90;;;;;;5012989;28;20184;-53
2022/01/20 01:47:46;;;;;;;9.70;7.40;;;3.00;99.90;;;;;;5013380;28;20260;-52
2022/01/20 01:50:12;;;;;;;10.50;7.80;;;3.00;99.90;;;;;;5012913;28;20164;-53
2022/01/20 01:52:37;;;;;;;9.30;7.20;;;3.10;99.90;;;;;;5013036;28;20555;-54
2022/01/20 01:55:04;;;;;;;8.43;6.90;;;3.00;99.90;;;;;;5012588;28;20255;-54
2022/01/20 01:57:29;;;;;;;9.77;8.20;;;3.00;99.90;;;;;;4995656;28;20177;-52
2022/01/20 01:59:55;;;;;;;10.03;7.87;;;3.00;99.90;;;;;;5012153;28;20172;-51
2022/01/20 02:02:21;;;;;;;10.23;7.90;;;2.90;99.90;;;;;;5012868;28;20555;-55
2022/01/20 02:04:48;;;;;;;9.47;7.50;;;2.90;99.90;;;;;;5012678;28;20549;-56
2022/01/20 02:20:38;;;;;;;8.70;6.90;;;2.80;99.90;;;;;;5012887;28;20246;-52
2022/01/20 02:23:04;;;;;;;9.40;7.13;;;2.70;99.90;;;;;;5012419;28;20172;-52
2022/01/20 02:25:33;;;;;;;9.80;7.43;;;2.70;99.90;;;;;;5012453;28;20199;-56
2022/01/20 02:28:00;;;;;;;10.57;7.93;;;2.60;99.90;;;;;;5012055;28;20211;-55
2022/01/20 02:30:28;;;;;;;9.40;7.50;;;2.60;99.90;;;;;;5011981;28;20173;-55
2022/01/20 02:33:00;;;;;;;9.03;7.37;;;2.50;99.90;;;;;;4994629;28;20212;-52
2022/01/20 02:35:28;;;;;;;11.50;8.20;;;2.60;99.90;;;;;;5012197;28;20649;-57
2022/01/20 02:38:04;;;;;;;9.40;7.93;;;2.50;99.90;;;;;;5012402;28;20642;-55
2022/01/20 02:45:42;;;;;;;10.23;8.17;;;2.40;99.90;;;;;;5011879;28;20310;-55
2022/01/20 02:48:08;;;;;;;8.63;7.50;;;2.40;99.90;;;;;;5012230;28;20211;-57
2022/01/20 02:50:34;;;;;;;9.60;8.10;;;2.30;99.90;;;;;;5011936;28;20172;-54
2022/01/20 02:53:00;;;;;;;9.87;7.40;;;2.30;99.90;;;;;;5012139;28;20200;-54
2022/01/20 02:55:25;;;;;;;11.07;8.37;;;2.30;99.90;;;;;;5011638;28;20704;-55
2022/01/20 02:57:51;;;;;;;9.20;7.43;;;2.30;99.90;;;;;;5012253;28;20226;-51
2022/01/20 03:00:16;;;;;;;9.40;7.80;;;2.30;99.90;;;;;;5011212;28;20180;-51
2022/01/20 03:02:43;;;;;;;11.40;7.87;;;2.40;99.90;;;;;;5011852;28;20180;-54
2022/01/20 03:05:11;;;;;;;11.27;7.90;;;2.40;99.90;;;;;;5011760;28;20255;-57
2022/01/20 03:07:37;;;;;;;8.90;7.10;;;2.50;99.90;;;;;;5011715;28;20258;-50
2022/01/20 03:10:07;;;;;;;10.03;7.70;;;2.50;99.90;;;;;;5011767;28;20275;-55
2022/01/20 03:12:33;;;;;;;9.07;7.70;;;2.50;99.90;;;;;;5010878;28;20216;-52
2022/01/20 03:14:59;;;;;;;10.13;7.63;;;2.50;99.90;;;;;;5011796;28;20169;-52
2022/01/20 03:17:24;;;;;;;9.00;7.73;;;2.60;99.90;;;;;;5010472;28;20641;-56
2022/01/20 03:19:50;;;;;;;11.03;6.97;;;2.70;99.90;;;;;;5011950;28;20255;-54
2022/01/20 03:22:16;;;;;;;9.47;7.10;;;2.80;99.90;;;;;;5011362;28;20219;-59
2022/01/20 03:24:42;;;;;;;8.10;7.00;;;2.70;99.90;;;;;;5011721;28;20172;-57
2022/01/20 03:27:08;;;;;;;8.80;6.93;;;2.70;99.90;;;;;;4994332;28;20728;-57
2022/01/20 03:29:34;;;;;;;9.10;6.70;;;2.70;99.90;;;;;;5011434;28;20614;-54
2022/01/20 03:31:59;;;;;;;8.03;6.43;;;2.70;99.90;;;;;;5011700;28;20238;-55
2022/01/20 03:34:25;;;;;;;9.20;6.97;;;2.70;99.90;;;;;;5011167;28;20542;-55
2022/01/20 03:36:52;;;;;;;8.47;6.87;;;2.80;99.90;;;;;;5012317;28;20219;-57
2022/01/20 03:39:18;;;;;;;9.17;7.00;;;2.80;99.90;;;;;;5011499;28;20654;-54
2022/01/20 03:41:44;;;;;;;7.93;6.70;;;2.80;99.90;;;;;;4994107;28;20704;-54
2022/01/20 03:44:09;;;;;;;7.33;6.33;;;2.70;99.90;;;;;;5011307;28;20180;-56
2022/01/20 03:46:35;;;;;;;8.00;6.50;;;2.80;99.90;;;;;;5011674;28;20652;-57
2022/01/20 03:49:12;;;;;;;7.77;6.67;;;2.90;99.90;;;;;;5011652;28;20303;-54
2022/01/20 03:51:38;;;;;;;8.77;6.30;;;3.00;99.90;;;;;;5011175;28;20208;-57
2022/01/20 03:54:04;;;;;;;8.17;6.00;;;2.90;99.90;;;;;;5010671;28;20677;-57
2022/01/20 03:56:31;;;;;;;8.63;5.73;;;2.80;99.90;;;;;;5011337;28;20189;-55
2022/01/20 03:58:56;;;;;;;8.80;6.03;;;2.70;99.90;;;;;;5011642;28;20257;-55
2022/01/20 04:01:22;;;;;;;8.20;6.00;;;2.60;99.90;;;;;;5011085;28;20283;-55
2022/01/20 04:03:48;;;;;;;11.23;6.30;;;2.50;99.90;;;;;;5011544;28;20179;-51
2022/01/20 04:06:14;;;;;;;8.67;6.33;;;2.50;99.90;;;;;;5011169;28;20593;-53
2022/01/20 04:08:42;;;;;;;7.63;5.87;;;2.40;99.90;;;;;;5011362;28;20180;-53
2022/01/20 04:11:14;;;;;;;7.23;6.07;;;2.50;99.90;;;;;;5011422;28;20640;-54
2022/01/20 04:13:40;;;;;;;9.70;6.23;;;2.40;99.90;;;;;;5011204;28;20515;-53
2022/01/20 04:16:14;;;;;;;8.47;6.43;;;2.30;99.90;;;;;;5011194;28;20168;-54
2022/01/20 04:18:51;;;;;;;7.83;6.03;;;2.30;99.90;;;;;;5011121;28;20191;-51
2022/01/20 04:21:17;;;;;;;10.37;6.33;;;2.20;99.90;;;;;;5011510;28;20204;-51
2022/01/20 04:23:42;;;;;;;6.80;5.87;;;2.20;99.90;;;;;;4996200;28;20187;-57
2022/01/20 04:26:08;;;;;;;7.77;5.97;;;2.20;99.90;;;;;;5014704;28;20299;-58
2022/01/20 04:28:33;;;;;;;7.97;6.00;;;2.20;99.90;;;;;;5014477;28;20299;-51
2022/01/20 04:30:59;;;;;;;6.83;5.60;;;2.20;99.90;;;;;;5014684;28;20692;-53
2022/01/20 04:33:24;;;;;;;7.77;5.73;;;2.20;99.90;;;;;;5014382;28;20687;-50
2022/01/20 04:35:50;;;;;;;6.90;5.47;;;2.20;99.90;;;;;;5011795;28;20173;-57
2022/01/20 04:38:16;;;;;;;8.93;6.37;;;2.20;99.90;;;;;;5013312;28;20172;-57
2022/01/20 04:40:43;;;;;;;7.93;5.60;;;2.30;99.90;;;;;;5012619;28;20268;-53
2022/01/20 04:43:08;;;;;;;6.70;5.40;;;2.30;99.90;;;;;;5013158;28;20168;-56
2022/01/20 04:45:40;;;;;;;8.40;6.27;;;2.20;99.90;;;;;;5013268;28;20711;-55
2022/01/20 04:48:22;;;;;;;7.07;5.90;;;2.20;99.90;;;;;;5014523;28;20585;-56
2022/01/20 04:59:00;;;;;;;7.27;5.83;;;2.10;99.90;;;;;;5014311;28;20538;-52
2022/01/20 05:01:26;;;;;;;8.40;6.30;;;2.00;99.90;;;;;;5014912;28;20518;-55
2022/01/20 05:03:54;;;;;;;6.50;5.50;;;2.00;99.90;;;;;;5014031;28;20172;-54
2022/01/20 05:06:20;;;;;;;6.70;5.80;;;2.00;99.90;;;;;;5013848;28;20242;-50
2022/01/20 05:08:46;;;;;;;8.07;6.50;;;2.00;99.90;;;;;;5013073;28;20169;-56
2022/01/20 05:11:13;;;;;;;7.30;6.00;;;2.10;99.90;;;;;;5013988;28;20214;-56
2022/01/20 05:13:40;;;;;;;7.73;5.87;;;2.00;99.90;;;;;;5013596;28;20172;-56
2022/01/20 05:16:06;;;;;;;6.83;5.33;;;1.90;99.90;;;;;;5013666;28;20320;-52
2022/01/20 05:18:32;;;;;;;8.27;5.90;;;1.90;99.90;;;;;;5013280;28;20216;-51
2022/01/20 05:20:57;;;;;;;7.03;5.60;;;2.00;99.90;;;;;;5013745;28;20195;-57
2022/01/20 05:23:23;;;;;;;7.63;5.60;;;1.90;99.90;;;;;;5013632;28;20172;-55
2022/01/20 05:25:49;;;;;;;7.50;6.20;;;2.00;99.90;;;;;;5013030;28;20169;-55
2022/01/20 05:28:15;;;;;;;6.47;5.73;;;2.10;99.90;;;;;;5013628;28;20172;-55
2022/01/20 05:30:40;;;;;;;7.20;6.13;;;2.00;99.90;;;;;;5013217;28;20199;-51
2022/01/20 05:33:07;;;;;;;8.00;6.23;;;2.00;99.90;;;;;;5013401;28;20215;-58
2022/01/20 05:35:33;;;;;;;6.57;5.57;;;2.00;99.90;;;;;;5011934;28;20698;-52
2022/01/20 05:37:59;;;;;;;8.67;6.30;;;1.90;99.90;;;;;;5013528;28;20403;-57
2022/01/20 05:40:25;;;;;;;7.93;6.20;;;1.90;99.90;;;;;;5013137;28;20196;-55
2022/01/20 05:42:51;;;;;;;7.53;6.17;;;1.90;99.90;;;;;;4995868;28;20411;-53
2022/01/20 05:45:17;;;;;;;7.23;5.90;;;1.90;99.90;;;;;;5013163;28;20461;-51
2022/01/20 05:47:47;;;;;;;9.70;6.17;;;1.90;99.90;;;;;;5012977;28;20172;-55
2022/01/20 05:50:16;;;;;;;9.37;6.57;;;1.90;99.90;;;;;;5013349;28;20180;-59
2022/01/20 05:52:42;;;;;;;7.77;6.60;;;2.10;99.90;;;;;;5012644;28;20473;-55
2022/01/20 05:55:27;;;;;;;7.23;6.00;;;2.20;99.90;;;;;;5013008;28;20251;-56
2022/01/20 05:57:53;;;;;;;7.83;6.40;;;2.40;99.90;;;;;;5012564;28;20188;-56
2022/01/20 06:00:22;;;;;;;7.10;5.80;;;2.30;99.90;;;;;;5012774;28;20172;-52
2022/01/20 06:05:32;;;;;;;6.83;5.50;;;2.20;99.90;;;;;;5012861;28;20711;-56
2022/01/20 06:07:58;;;;;;;7.23;5.57;;;2.20;99.90;;;;;;5012635;28;20172;-60
2022/01/20 06:10:24;;;;;;;6.97;5.57;;;2.20;99.90;;;;;;4995267;28;20673;-54
2022/01/20 06:12:50;;;;;;;6.73;5.50;;;2.20;99.90;;;;;;5012871;28;20192;-57
2022/01/20 06:15:15;;;;;;;7.43;5.50;;;2.20;99.90;;;;;;5012369;28;20164;-56
2022/01/20 06:17:42;;;;;;;7.10;5.73;;;2.10;99.90;;;;;;5012852;28;20251;-56
2022/01/20 06:20:09;;;;;;;8.43;6.23;;;2.10;99.90;;;;;;5012491;28;20215;-57
2022/01/20 06:22:35;;;;;;;7.63;5.60;;;2.20;99.90;;;;;;5012733;28;20192;-53
2022/01/20 06:25:02;;;;;;;6.73;5.83;;;2.30;99.90;;;;;;5012263;28;20169;-56
2022/01/20 06:27:28;;;;;;;6.80;5.80;;;2.30;99.90;;;;;;5012581;28;20180;-57
2022/01/20 06:29:53;;;;;;;7.73;5.40;;;2.20;99.90;;;;;;5012266;28;20684;-55
2022/01/20 06:32:19;;;;;;;6.77;5.67;;;2.20;99.90;;;;;;5012651;28;20205;-51
2022/01/20 06:34:46;;;;;;;7.33;5.40;;;2.20;99.90;;;;;;5012329;28;20188;-54
2022/01/20 06:37:12;;;;;;;6.43;5.43;;;2.20;99.90;;;;;;5012061;28;20623;-51
2022/01/20 06:39:37;;;;;;;6.67;5.23;;;2.20;99.90;;;;;;5012498;28;20176;-56
2022/01/20 06:42:04;;;;;;;6.77;5.70;;;2.20;99.90;;;;;;5011933;28;20200;-54
2022/01/20 06:44:29;;;;;;;6.00;5.40;;;2.20;99.90;;;;;;5012030;28;20596;-50
2022/01/20 06:46:55;;;;;;;7.10;5.20;;;2.20;99.90;;;;;;5011650;28;20169;-59
2022/01/20 06:49:20;;;;;;;6.77;5.47;;;2.10;99.90;;;;;;5012221;28;20218;-50
2022/01/20 06:51:46;;;;;;;6.77;5.67;;;2.10;99.90;;;;;;5011882;28;20479;-53
2022/01/20 06:54:12;;;;;;;6.90;5.60;;;2.10;99.90;;;;;;5011814;28;20180;-51
2022/01/20 06:56:41;;;;;;;7.20;5.90;;;2.00;99.90;;;;;;5012206;28;20187;-53
2022/01/20 06:59:08;;;;;;;7.37;6.00;;;2.10;99.90;;;;;;5011715;28;20708;-51
2022/01/20 07:01:33;;;;;;;7.90;6.03;;;2.00;99.90;;;;;;5011737;28;20223;-50
2022/01/20 07:03:59;;;;;;;6.07;5.30;;;2.10;99.90;;;;;;5011459;28;20177;-51
2022/01/20 07:06:24;;;;;;;7.47;6.27;;;2.00;99.90;;;;;;5011810;28;20175;-55
2022/01/20 07:08:50;;;;;;;7.37;5.80;;;2.00;99.90;;;;;;5011599;28;20172;-50
2022/01/20 07:11:16;;;;;;;7.17;5.83;;;2.00;99.90;;;;;;5011774;28;20284;-56
2022/01/20 07:13:41;;;;;;;7.40;6.27;;;2.00;99.90;;;;;;5011772;28;20533;-53
2022/01/20 07:16:07;;;;;;;7.23;5.80;;;2.00;99.90;;;;;;5011333;28;20664;-54
2022/01/20 07:18:32;;;;;;;7.83;6.30;;;2.00;99.90;;;;;;5011883;28;20609;-51
2022/01/20 07:20:58;;;;;;;7.53;6.00;;;2.00;99.90;;;;;;5011378;28;20194;-54
2022/01/20 07:23:24;;;;;;;6.50;5.80;;;2.10;99.90;;;;;;5011796;28;20176;-55
2022/01/20 07:25:49;;;;;;;6.17;5.00;;;2.00;99.90;;;;;;5011050;28;20172;-51
2022/01/20 07:28:15;;;;;;;7.20;6.10;;;2.10;99.90;;;;;;5011680;28;20243;-54
2022/01/20 07:30:40;;;;;;;7.20;5.90;;;2.20;99.90;;;;;;5011465;28;20260;-53
2022/01/20 07:33:07;;;;;;;7.03;5.90;;;2.20;99.90;;;;;;5011673;28;20705;-53
2022/01/20 07:35:33;;;;;;;7.97;6.43;;;2.20;99.90;;;;;;5011453;28;20164;-50
2022/01/20 07:37:59;;;;;;;7.47;6.20;;;2.10;99.90;;;;;;5011404;28;20251;-53
2022/01/20 07:40:25;;;;;;;6.53;5.87;;;2.10;99.90;;;;;;5011454;28;20722;-53
2022/01/20 07:42:50;;;;;;;6.93;6.23;;;2.10;99.90;;;;;;5011165;28;20177;-54
2022/01/20 07:45:17;;;;;;;7.33;6.20;;;2.10;99.90;;;;;;5011346;28;20334;-55
2022/01/20 07:47:43;;;;;;;6.67;5.97;;;2.10;99.90;;;;;;5011319;28;20168;-56
2022/01/20 07:50:10;;;;;;;5.83;5.03;;;2.20;99.90;;;;;;5011479;28;20177;-54
2022/01/20 07:52:36;;;;;;;6.73;5.97;;;2.20;99.90;;;;;;5010986;28;20207;-53
2022/01/20 07:55:02;;;;;;;6.70;5.77;;;2.20;99.90;;;;;;5011257;28;20165;-59
2022/01/20 07:57:27;;;;;;;7.97;5.67;;;2.20;99.90;;;;;;5012645;28;20175;-57
2022/01/20 07:59:53;;;;;;;8.93;5.70;;;2.20;99.90;;;;;;4991577;28;20502;-53
2022/01/20 08:02:18;;;;;;;6.37;5.67;;;2.20;99.90;;;;;;5003757;28;20270;-51
2022/01/20 08:04:44;;;;;;;7.50;5.90;;;2.20;99.90;;;;;;5013408;28;20177;-55
2022/01/20 08:07:09;;;;;;;6.57;5.87;;;2.30;99.90;;;;;;5003609;28;20208;-55
2022/01/20 08:09:35;;;;;;;6.47;5.70;;;2.40;99.90;;;;;;5011018;28;20255;-55
2022/01/20 08:12:00;;;;;;;6.73;5.40;;;2.30;99.90;;;;;;5000328;28;20217;-52
2022/01/20 08:14:28;;;;;;;6.57;5.87;;;2.30;99.90;;;;;;4995110;28;20169;-52
2022/01/20 08:16:53;;;;;;;6.53;5.73;;;2.20;99.90;;;;;;5014473;28;20526;-52
2022/01/20 08:19:19;;;;;;;6.90;5.67;;;2.30;99.90;;;;;;5014945;28;20248;-56
2022/01/20 08:21:44;;;;;;;8.27;5.93;;;2.30;99.90;;;;;;5034406;28;20188;-51
2022/01/20 08:24:10;;;;;;;7.47;5.50;;;2.40;99.90;;;;;;5014021;28;20272;-50
2022/01/20 08:26:36;;;;;;;7.07;5.57;;;2.40;99.90;;;;;;5003576;28;20189;-51
2022/01/20 08:29:02;;;;;;;8.20;5.63;;;2.40;99.90;;;;;;5014427;28;20176;-53
2022/01/20 08:31:29;;;;;;;6.23;5.13;;;2.40;99.90;;;;;;5002057;28;20200;-55
2022/01/20 08:33:55;;;;;;;6.20;5.30;;;2.40;99.90;;;;;;5014191;28;20176;-56
2022/01/20 08:36:20;;;;;;;6.20;5.23;;;2.40;99.90;;;;;;5008156;28;20542;-55
2022/01/20 08:38:46;;;;;;;6.67;5.37;;;2.40;99.90;;;;;;4995573;28;20305;-52
2022/01/20 08:41:11;;;;;;;9.00;5.70;;;2.40;99.90;;;;;;5005775;28;20264;-51
2022/01/20 08:43:40;;;;;;;5.80;5.20;;;2.40;99.90;;;;;;4994695;28;20165;-50
2022/01/20 08:46:07;;;;;;;6.37;5.20;;;2.50;99.90;;;;;;4994669;28;20270;-50
2022/01/20 08:48:34;;;;;;;7.60;5.53;;;2.50;99.90;;;;;;5001154;28;20533;-55
2022/01/20 08:51:01;;;;;;;6.53;5.10;;;2.40;99.90;;;;;;5014384;28;20185;-51
2022/01/20 08:53:27;;;;;;;6.10;5.03;;;2.50;99.90;;;;;;5014215;28;20168;-55
2022/01/20 08:55:53;;;;;;;6.37;5.20;;;2.60;99.90;;;;;;5014146;28;20222;-50
2022/01/20 08:58:19;;;;;;;6.00;5.40;;;2.60;99.90;;;;;;5013964;28;20645;-52
2022/01/20 09:00:44;;;;;;;6.90;4.80;;;2.60;99.90;;;;;;5013993;28;20208;-52
2022/01/20 09:03:11;;;;;;;7.40;5.50;;;2.70;99.90;;;;;;5014111;28;20180;-50
2022/01/20 09:05:37;;;;;;;7.00;5.00;;;2.80;99.90;;;;;;4995929;28;20181;-54
2022/01/20 09:08:04;;;;;;;7.47;5.23;;;2.80;99.90;;;;;;4996257;28;20188;-55
2022/01/20 09:10:37;;;;;;;7.77;4.90;;;2.80;99.90;;;;;;5013663;28;20180;-54
2022/01/20 09:15:47;;;;;;;5.47;4.70;;;2.70;99.90;;;;;;5013169;28;20207;-54
2022/01/20 09:18:14;;;;;;;6.57;4.60;;;2.80;99.90;;;;;;5013475;28;20618;-51
2022/01/20 09:20:40;;;;;;;6.63;4.80;;;2.80;99.90;;;;;;5013551;28;20267;-53
2022/01/20 09:23:07;;;;;;;5.90;4.67;;;2.90;99.90;;;;;;5014038;28;20653;-51
2022/01/20 09:25:34;;;;;;;7.10;4.57;;;3.00;99.90;;;;;;4995552;28;20184;-53
2022/01/20 09:28:00;;;;;;;8.90;4.80;;;3.10;99.90;;;;;;5013784;28;20607;-54
2022/01/20 09:30:27;;;;;;;5.13;4.00;;;3.10;99.90;;;;;;5013575;28;20255;-53
2022/01/20 09:35:37;;;;;;;5.50;3.97;;;3.10;99.90;;;;;;5013619;28;20176;-53
2022/01/20 09:38:04;;;;;;;6.93;4.40;;;3.10;99.90;;;;;;5013355;28;20184;-55
2022/01/20 09:40:32;;;;;;;5.93;4.07;;;3.00;99.90;;;;;;5013432;28;20554;-54
2022/01/20 09:42:58;;;;;;;4.97;4.10;;;2.90;99.90;;;;;;5013181;28;20199;-55
2022/01/20 09:45:24;;;;;;;6.47;4.10;;;2.90;99.90;;;;;;5013010;28;20677;-55
2022/01/20 09:47:50;;;;;;;5.80;4.13;;;2.90;99.90;;;;;;5013132;28;20176;-53
2022/01/20 09:50:19;;;;;;;5.07;3.73;;;3.00;99.90;;;;;;5013130;28;20203;-53
2022/01/20 09:52:46;;;;;;;4.33;3.77;;;3.00;99.90;;;;;;5013208;28;20201;-54
2022/01/20 09:55:11;;;;;;;4.73;3.67;;;3.10;99.90;;;;;;5012873;28;20173;-50
2022/01/20 09:57:37;;;;;;;5.47;3.70;;;3.10;99.90;;;;;;5013279;28;20175;-50
2022/01/20 10:00:07;;;;;;;4.77;4.03;;;3.20;99.90;;;;;;5012755;28;20197;-53
2022/01/20 10:02:33;;;;;;;4.57;4.07;;;3.40;99.90;;;;;;5013022;28;20208;-53
2022/01/20 10:04:58;;;;;;;4.57;4.07;;;3.50;99.90;;;;;;5012591;28;20641;-50
2022/01/20 10:07:32;;;;;;;5.90;4.00;;;3.50;99.90;;;;;;5008910;28;20196;-52
2022/01/20 10:09:57;;;;;;;7.13;4.20;;;3.50;99.90;;;;;;5001919;28;20235;-53
2022/01/20 10:12:29;;;;;;;5.97;3.93;;;3.40;99.90;;;;;;5005433;28;20224;-51
2022/01/20 10:14:56;;;;;;;4.67;4.07;;;3.30;99.90;;;;;;5004457;28;20200;-52
2022/01/20 10:17:27;;;;;;;5.73;4.00;;;3.30;99.90;;;;;;5009693;28;20212;-55
2022/01/20 10:19:55;;;;;;;6.87;4.47;;;3.20;99.90;;;;;;4998546;28;20189;-50
2022/01/20 10:22:23;;;;;;;5.43;4.50;;;3.30;99.90;;;;;;4994937;28;20212;-52
2022/01/20 10:25:02;;;;;;;6.50;4.37;;;3.20;99.90;;;;;;5006133;28;20211;-51
2022/01/20 10:27:29;;;;;;;5.13;4.00;;;3.20;99.90;;;;;;4996478;28;20219;-54
2022/01/20 10:29:56;;;;;;;4.53;4.13;;;3.10;99.90;;;;;;4992827;28;20216;-54
2022/01/20 10:32:22;;;;;;;6.13;4.37;;;3.10;99.90;;;;;;4992930;28;20645;-55
2022/01/20 10:34:48;;;;;;;5.10;3.67;;;3.10;99.90;;;;;;4992445;28;20635;-48
2022/01/20 10:37:16;;;;;;;6.17;3.77;;;3.10;99.90;;;;;;4991256;28;20165;-49
2022/01/20 10:39:45;;;;;;;5.73;4.00;;;3.10;99.90;;;;;;4991687;28;20170;-52
2022/01/20 10:42:17;;;;;;;5.53;3.90;;;3.10;99.90;;;;;;4991158;28;20200;-50
2022/01/20 10:44:56;;;;;;;4.70;4.07;;;3.20;99.90;;;;;;4992436;28;20271;-54
2022/01/20 10:47:24;;;;;;;6.37;4.03;;;3.20;99.90;;;;;;4992853;28;20169;-52
2022/01/20 10:49:51;;;;;;;5.03;3.57;;;3.30;99.90;;;;;;4992618;28;20172;-54
2022/01/20 10:52:23;;;;;;;4.27;3.50;;;3.30;99.90;;;;;;4992560;28;20212;-55
2022/01/20 10:54:49;;;;;;;5.30;3.70;;;3.20;99.90;;;;;;4992103;28;20181;-56
2022/01/20 10:57:16;;;;;;;6.50;3.40;;;3.30;99.90;;;;;;4992679;28;20173;-53
2022/01/20 10:59:52;;;;;;;3.80;3.40;;;3.30;99.90;;;;;;4992462;28;20165;-56
2022/01/20 11:02:20;;;;;;;6.20;3.60;;;3.30;99.90;;;;;;4993617;28;20208;-55
2022/01/20 11:04:47;;;;;;;4.77;3.63;;;3.30;99.90;;;;;;4992223;28;20282;-51
2022/01/20 11:07:12;;;;;;;4.93;3.53;;;3.40;99.90;;;;;;4992529;28;20240;-53
2022/01/20 11:09:42;;;;;;;4.10;3.07;;;3.50;99.90;;;;;;4992276;28;20234;-56
2022/01/20 11:12:11;;;;;;;6.73;3.30;;;3.50;99.90;;;;;;4991897;28;20582;-54
2022/01/20 11:14:38;;;;;;;4.83;3.47;;;3.50;99.90;;;;;;4991974;28;20180;-56
2022/01/20 11:17:04;;;;;;;5.77;3.77;;;3.50;99.90;;;;;;4992377;28;20169;-55
2022/01/20 11:19:36;;;;;;;2.90;2.57;;;3.60;99.90;;;;;;4992341;28;20169;-53
2022/01/20 11:22:20;;;;;;;3.83;2.80;;;3.50;99.90;;;;;;4992087;28;20594;-53
2022/01/20 11:24:58;;;;;;;5.20;2.93;;;3.50;99.90;;;;;;5000513;28;20684;-54
2022/01/20 11:27:43;;;;;;;4.40;3.03;;;3.60;99.90;;;;;;5001297;28;20184;-57
2022/01/20 11:30:26;;;;;;;3.57;2.90;;;3.60;99.90;;;;;;5007636;28;20647;-52
2022/01/20 11:33:10;;;;;;;4.30;3.10;;;3.70;99.90;;;;;;5012782;28;20681;-55
2022/01/20 11:35:41;;;;;;;4.23;3.00;;;3.70;99.90;;;;;;5015163;28;20187;-54
2022/01/20 11:38:08;;;;;;;5.43;2.80;;;3.90;99.90;;;;;;5001502;28;20180;-57
2022/01/20 11:40:35;;;;;;;4.77;2.87;;;4.00;99.90;;;;;;5015500;28;20550;-58
2022/01/20 11:43:13;;;;;;;4.83;2.93;;;3.90;99.90;;;;;;5015318;28;20259;-59
2022/01/20 11:45:41;;;;;;;6.30;2.93;;;4.10;99.90;;;;;;5015749;28;20168;-51
2022/01/20 11:48:18;;;;;;;2.53;2.20;;;4.20;99.90;;;;;;5010281;28;20192;-55
2022/01/20 11:50:45;;;;;;;4.57;2.80;;;4.10;99.90;;;;;;5008876;28;20196;-54
2022/01/20 11:53:15;;;;;;;4.53;2.60;;;4.00;99.90;;;;;;5014511;28;20536;-53
2022/01/20 11:55:50;;;;;;;4.63;2.93;;;3.90;99.90;;;;;;5013031;28;20172;-50
2022/01/20 11:58:20;;;;;;;4.07;2.87;;;3.70;99.90;;;;;;5013529;28;20184;-54
2022/01/20 12:01:09;;;;;;;3.73;2.60;;;3.60;99.90;;;;;;5010387;28;20211;-50
2022/01/20 12:03:48;;;;;;;3.70;2.70;;;3.40;99.90;;;;;;5022773;28;20172;-54
2022/01/20 12:06:19;;;;;;;4.20;2.57;;;3.40;99.90;;;;;;5007879;28;20749;-52
2022/01/20 12:08:56;;;;;;;4.07;2.70;;;3.50;99.90;;;;;;5007952;28;20558;-55
2022/01/20 12:11:37;;;;;;;4.23;2.90;;;3.60;99.90;;;;;;4996200;28;20197;-55
2022/01/20 12:14:03;;;;;;;3.27;2.40;;;3.70;99.90;;;;;;5012006;28;20181;-51
2022/01/20 12:16:28;;;;;;;2.80;2.00;;;4.80;99.90;;;;;;5012117;28;20188;-53
2022/01/20 12:18:57;;;;;;;3.67;1.87;;;5.60;99.90;;;;;;5003371;28;20276;-51
2022/01/20 12:21:24;;;;;;;2.53;2.17;;;5.60;99.90;;;;;;5019195;28;20196;-53
2022/01/20 12:23:52;;;;;;;4.73;2.27;;;5.40;99.90;;;;;;5021790;28;20169;-55
2022/01/20 12:26:18;;;;;;;4.27;2.40;;;5.10;99.90;;;;;;5022574;28;20226;-57
2022/01/20 12:28:44;;;;;;;3.10;2.33;;;4.60;99.90;;;;;;5004854;28;20204;-56
2022/01/20 12:31:12;;;;;;;4.30;2.50;;;4.30;99.90;;;;;;5008977;28;20193;-48
2022/01/20 12:33:42;;;;;;;4.47;2.30;;;4.10;99.90;;;;;;5014194;28;20538;-58
2022/01/20 12:36:13;;;;;;;4.50;2.20;;;4.00;99.90;;;;;;5018006;28;20165;-54
2022/01/20 12:38:39;;;;;;;4.67;2.70;;;4.30;99.90;;;;;;5012134;28;20180;-54
2022/01/20 12:41:32;;;;;;;2.73;2.43;;;5.50;99.90;;;;;;5021232;28;20196;-54
2022/01/20 12:44:07;;;;;;;7.63;2.93;;;4.00;99.90;;;;;;5018946;28;20188;-54
2022/01/20 12:46:38;;;;;;;4.03;2.77;;;3.90;99.90;;;;;;5023427;28;20164;-53
2022/01/20 12:49:12;;;;;;;5.37;2.37;;;3.90;99.90;;;;;;5022085;28;20172;-51
2022/01/20 12:51:54;;;;;;;4.67;2.30;;;4.20;99.90;;;;;;5009755;28;20204;-51
2022/01/20 12:54:26;;;;;;;4.10;2.60;;;4.30;99.90;;;;;;5002000;28;20177;-52
2022/01/20 12:57:03;;;;;;;4.37;2.27;;;4.30;99.90;;;;;;4999380;28;20534;-51
2022/01/20 12:59:35;;;;;;;3.33;2.10;;;4.30;99.90;;;;;;4999994;28;20596;-51
2022/01/20 13:02:08;;;;;;;5.03;2.23;;;4.20;99.90;;;;;;5000550;28;20215;-56
2022/01/20 13:04:37;;;;;;;5.10;2.43;;;4.10;99.90;;;;;;5006229;28;20177;-50
2022/01/20 13:07:05;;;;;;;4.00;2.13;;;4.00;99.90;;;;;;5001147;28;20177;-53
2022/01/20 13:09:41;;;;;;;3.03;2.23;;;4.00;99.90;;;;;;4995715;28;20204;-50
2022/01/20 13:12:07;;;;;;;5.37;2.23;;;3.90;99.90;;;;;;4995612;28;20211;-56
2022/01/20 13:14:39;;;;;;;2.67;1.80;;;3.90;99.90;;;;;;4997705;28;20173;-54
2022/01/20 13:17:07;;;;;;;4.20;2.00;;;3.90;99.90;;;;;;4995082;28;20172;-55
2022/01/20 13:19:40;;;;;;;3.57;1.97;;;3.90;99.90;;;;;;4995791;28;20170;-54
2022/01/20 13:22:18;;;;;;;2.33;1.80;;;3.90;99.90;;;;;;4994602;28;20200;-54
2022/01/20 13:24:44;;;;;;;4.07;2.13;;;3.70;99.90;;;;;;4995284;28;20169;-58
2022/01/20 13:27:12;;;;;;;5.00;2.10;;;3.80;99.90;;;;;;4996122;28;20539;-56
2022/01/20 13:29:46;;;;;;;3.90;1.83;;;3.90;99.90;;;;;;4997070;28;20263;-56
2022/01/20 13:32:13;;;;;;;6.57;2.50;;;3.50;99.90;;;;;;4994208;28;20716;-50
2022/01/20 13:34:50;;;;;;;5.13;1.67;;;3.00;99.90;;;;;;4996326;28;20173;-52
2022/01/20 13:37:16;;;;;;;2.13;1.40;;;3.10;99.90;;;;;;4994765;28;20607;-52
2022/01/20 13:39:44;;;;;;;1.63;0.90;;;2.70;99.90;;;;;;4994642;28;20252;-51
2022/01/20 13:42:38;;;;;;;1.63;1.00;;;2.40;99.90;;;;;;4994235;28;20220;-53
2022/01/20 13:45:17;;;;;;;2.10;1.00;;;2.30;99.90;;;;;;4993134;28;20256;-49
2022/01/20 13:47:54;;;;;;;1.43;1.20;;;2.50;99.90;;;;;;4993888;28;20188;-53
2022/01/20 13:50:28;;;;;;;1.40;0.83;;;2.80;99.90;;;;;;4993470;28;20165;-51
2022/01/20 13:52:55;;;;;;;1.73;0.70;;;2.70;99.90;;;;;;4993870;28;20689;-52
2022/01/20 13:55:28;;;;;;;1.67;0.90;;;2.60;99.90;;;;;;4992857;28;20170;-50
2022/01/20 13:57:56;;;;;;;3.70;1.20;;;3.20;99.90;;;;;;4993664;28;20285;-56
2022/01/20 14:00:25;;;;;;;2.77;1.40;;;3.00;99.90;;;;;;4993522;28;20197;-54
2022/01/20 14:02:50;;;;;;;3.50;1.40;;;3.20;99.90;;;;;;4993640;28;20173;-57
2022/01/20 14:05:18;;;;;;;1.47;1.00;;;3.20;99.90;;;;;;4993444;28;20184;-52
2022/01/20 14:07:44;;;;;;;1.67;0.90;;;2.90;99.90;;;;;;4993458;28;20244;-56